メインページ
METAR-TAF:

METAR-TAF

空港 :

上海浦東, 中華人民共和国

上海浦東国際空港

緯度: 31-07N, 経度: 121-46E, 海抜: 4m

現時点の気象観測

当レポートは43分前の00:30(UTC)に作成
南東の風 8kt、最大21ktの突風を伴う、からの間で変化する
気温 23°C
湿度 89%
気圧 1008 hPa
視程10km以上
高度1100ftの千切れ雲あり

METAR: ZSPD 230030Z 13004G11MPS 090V180 9999 BKN011 23/21 Q1008 NOSIG

時間: 09:13 (01:13 UTC)

予報

当レポートは3時間47分前の21:26(UTC)に作成
予報は23日の 00時(UTC)から 23日の 24時(UTC)まで有効
東/南東の風 10kt
視程: 6000m
高度1100ftの千切れ雲あり
確率 40% :
23日の 08時(UTC)から 23日の 14時(UTC)まで一時的に
北西の風 14kt
視程: 1500m
高度500ftの千切れ雲あり
高度3000ftの雲は散在している, 積乱雲.
高度4000ftの曇り
激しい雷雨, 雨, 靄
23日の 08時(UTC)から 23日の 10時(UTC)まで徐々に
東/北東の風 8kt
23日の 16時(UTC)から 23日の 18時(UTC)まで徐々に
の風 10kt

TAF: ZSPD 222126Z 2300/2324 12005MPS 6000 BKN011 TX26/2306Z TN19/2321Z PROB40 TEMPO 2308/2314 32007MPS 1500 TSRA BR BKN005 SCT030CB OVC040 BECMG 2308/2310 07004MPS BECMG 2316/2318 01005MPS

4,000以上の空港の気象観測と天気予報(METAR報とTAF報)

利用可能な観測所は地図上に黄色い丸と赤い丸で示す。

丸の上にカーソルを重ねると観測所名を参照できる。

次にクリックすると気象観測と天気予報を参照できる。

マップの切り替え:黒色「×」印の緑ボタンをクリックして拡大、「-」印の緑ボタンをクリックして縮小、緑色の三角印をクリックして隣りの地図に切り替え


METAR-TAF: